createdAt,value
2023-05-10T00:00:49.175Z,100876.62
2023-05-10T00:03:15.952Z,100878.01
2023-05-10T00:05:42.764Z,100878.34
2023-05-10T00:08:09.458Z,100879.75
2023-05-10T00:10:36.254Z,100876.21
2023-05-10T00:13:03.037Z,100885.32
2023-05-10T00:15:31.483Z,100881.79
2023-05-10T00:17:58.217Z,100882.67
2023-05-10T00:20:24.879Z,100884.27
2023-05-10T00:22:52.050Z,100885.88
2023-05-10T00:25:18.828Z,100881.44
2023-05-10T00:27:45.555Z,100880.20
2023-05-10T00:30:12.337Z,100880.91
2023-05-10T00:32:39.083Z,100884.48
2023-05-10T00:35:06.149Z,100884.54
2023-05-10T00:37:33.121Z,100882.60
2023-05-10T00:40:00.706Z,100881.54
2023-05-10T00:42:27.453Z,100883.50
2023-05-10T00:44:54.365Z,100881.00
2023-05-10T00:47:21.143Z,100880.13
2023-05-10T00:49:47.816Z,100879.27
2023-05-10T00:52:14.570Z,100878.92
2023-05-10T00:54:41.600Z,100883.49
2023-05-10T00:57:08.287Z,100881.52
2023-05-10T00:59:35.207Z,100879.52
2023-05-10T01:02:02.671Z,100882.88
2023-05-10T01:04:29.986Z,100879.98
2023-05-10T01:06:58.185Z,100870.16
2023-05-10T01:09:27.281Z,100871.75
2023-05-10T01:11:54.331Z,100876.73
2023-05-10T01:14:21.086Z,100879.55
2023-05-10T01:16:48.552Z,100881.35
2023-05-10T01:19:21.367Z,100879.94
2023-05-10T01:21:54.378Z,100876.42
2023-05-10T01:24:48.879Z,100881.08
2023-05-10T01:27:18.655Z,100891.05
2023-05-10T01:29:50.266Z,100896.92
2023-05-10T01:32:27.854Z,100894.51
2023-05-10T01:35:01.927Z,100899.55
2023-05-10T01:37:42.411Z,100898.74
2023-05-10T01:40:40.362Z,100901.27
2023-05-10T01:43:13.947Z,100897.35
2023-05-10T01:45:51.899Z,100899.48
2023-05-10T01:48:18.844Z,100902.48
2023-05-10T01:50:46.042Z,100904.42
2023-05-10T01:53:13.880Z,100904.09
2023-05-10T01:55:51.926Z,100906.59
2023-05-10T01:58:24.677Z,100910.30
2023-05-10T02:00:52.100Z,100907.43
2023-05-10T02:03:19.714Z,100911.34
2023-05-10T02:05:46.683Z,100916.48
2023-05-10T02:08:13.736Z,100916.88
2023-05-10T02:10:40.590Z,100911.75
2023-05-10T02:13:08.500Z,100912.29
2023-05-10T02:15:35.339Z,100904.32
2023-05-10T02:18:02.035Z,100889.79
2023-05-10T02:20:28.774Z,100871.33
2023-05-10T02:22:56.158Z,100860.86
2023-05-10T02:25:23.957Z,100846.30
2023-05-10T02:27:50.634Z,100843.65
2023-05-10T02:30:17.919Z,100859.89
2023-05-10T02:32:44.842Z,100886.94
2023-05-10T02:35:11.804Z,100909.89
2023-05-10T02:37:38.792Z,100920.91
2023-05-10T02:40:06.448Z,100926.08
2023-05-10T02:42:34.210Z,100933.00
2023-05-10T02:45:01.868Z,100938.52
2023-05-10T02:47:29.551Z,100941.17
2023-05-10T02:49:56.240Z,100941.19
2023-05-10T02:52:25.769Z,100944.39
2023-05-10T02:54:53.703Z,100940.52
2023-05-10T02:57:24.290Z,100939.98
2023-05-10T02:59:50.900Z,100938.73
2023-05-10T03:02:17.568Z,100941.04
2023-05-10T03:04:44.522Z,100941.77
2023-05-10T03:07:11.190Z,100944.83
2023-05-10T03:09:37.887Z,100948.92
2023-05-10T03:12:04.550Z,100944.70
2023-05-10T03:16:08.863Z,100947.02
2023-05-10T03:19:02.965Z,100944.38
2023-05-10T03:21:30.146Z,100943.30
2023-05-10T03:24:04.145Z,100938.86
2023-05-10T03:26:31.207Z,100932.98
2023-05-10T03:29:03.684Z,100932.27
2023-05-10T03:31:30.552Z,100929.23
2023-05-10T03:33:57.361Z,100932.80
2023-05-10T03:36:26.199Z,100935.47
2023-05-10T03:38:53.067Z,100931.70
2023-05-10T03:41:20.055Z,100935.42
2023-05-10T03:43:47.811Z,100935.60
2023-05-10T03:46:14.526Z,100943.60
2023-05-10T03:48:41.744Z,100944.48
2023-05-10T03:51:08.533Z,100942.34
2023-05-10T03:53:35.402Z,100948.52
2023-05-10T03:56:02.187Z,100948.17
2023-05-10T03:58:28.806Z,100949.60
2023-05-10T04:00:56.417Z,100952.78
2023-05-10T04:03:23.183Z,100948.69
2023-05-10T04:05:50.042Z,100949.36
2023-05-10T04:08:17.527Z,100952.70
2023-05-10T04:10:44.675Z,100957.95
2023-05-10T04:13:12.318Z,100960.83
2023-05-10T04:15:39.015Z,100958.04
2023-05-10T04:18:07.968Z,100957.74
2023-05-10T04:20:35.589Z,100962.11
2023-05-10T04:23:02.290Z,100962.38
2023-05-10T04:25:28.929Z,100960.31
2023-05-10T04:27:55.595Z,100957.31
2023-05-10T04:30:22.246Z,100954.47
2023-05-10T04:32:49.019Z,100961.05
2023-05-10T04:35:15.963Z,100958.88
2023-05-10T04:37:42.689Z,100957.61
2023-05-10T04:40:10.197Z,100953.14
2023-05-10T04:42:36.948Z,100951.31
2023-05-10T04:45:04.061Z,100953.20
2023-05-10T04:47:30.869Z,100950.23
2023-05-10T04:49:57.598Z,100948.52
2023-05-10T04:52:24.219Z,100951.95
2023-05-10T04:54:52.016Z,100956.64
2023-05-10T04:57:18.799Z,100953.84
2023-05-10T04:59:45.478Z,100953.89
2023-05-10T05:02:12.334Z,100954.45
2023-05-10T05:04:39.011Z,100955.54
2023-05-10T05:07:05.830Z,100954.48
2023-05-10T05:09:33.116Z,100955.55
2023-05-10T05:11:59.811Z,100958.27
2023-05-10T05:14:26.461Z,100952.98
2023-05-10T05:16:53.752Z,100950.73
2023-05-10T05:19:20.457Z,100951.55
2023-05-10T05:21:47.137Z,100952.70
2023-05-10T05:24:13.787Z,100953.99
2023-05-10T05:26:40.470Z,100956.06
2023-05-10T05:29:07.493Z,100961.16
2023-05-10T05:31:34.410Z,100961.44
2023-05-10T05:34:01.115Z,100965.48
2023-05-10T05:36:27.788Z,100964.89
2023-05-10T05:38:54.428Z,100969.13
2023-05-10T05:41:22.532Z,100969.75
2023-05-10T05:43:49.227Z,100976.34
2023-05-10T05:46:15.986Z,100977.80
2023-05-10T05:48:42.742Z,100975.23
2023-05-10T05:51:09.519Z,100982.73
2023-05-10T05:53:36.288Z,100981.04
2023-05-10T05:56:03.340Z,100980.73
2023-05-10T05:58:30.035Z,100981.50
2023-05-10T06:00:56.656Z,100983.89
2023-05-10T06:03:23.383Z,100986.13
2023-05-10T06:05:50.382Z,100984.89
2023-05-10T06:08:17.072Z,100988.92
2023-05-10T06:10:44.154Z,100989.80
2023-05-10T06:13:11.056Z,100988.34
2023-05-10T06:15:37.952Z,100988.20
2023-05-10T06:18:04.699Z,100990.16
2023-05-10T06:20:32.636Z,100991.88
2023-05-10T06:22:59.751Z,100988.30
2023-05-10T06:25:26.469Z,100990.50
2023-05-10T06:27:58.054Z,100987.52
2023-05-10T06:30:28.462Z,100983.90
2023-05-10T06:32:55.847Z,100980.20
2023-05-10T06:35:22.585Z,100980.80
2023-05-10T06:37:49.852Z,100983.94
2023-05-10T06:40:16.968Z,100991.84
2023-05-10T06:42:44.281Z,100994.53
2023-05-10T06:45:11.650Z,100992.18
2023-05-10T06:47:39.289Z,100988.55
2023-05-10T06:50:07.002Z,100988.08
2023-05-10T06:52:33.734Z,100993.09
2023-05-10T06:55:01.301Z,100993.01
2023-05-10T06:57:31.622Z,100997.06
2023-05-10T07:00:02.593Z,100994.79
2023-05-10T07:02:29.470Z,100995.41
2023-05-10T07:04:56.507Z,100992.03
2023-05-10T07:07:23.210Z,100989.16
2023-05-10T07:09:51.008Z,100984.63
2023-05-10T07:12:17.883Z,100984.56
2023-05-10T07:14:44.663Z,100979.03
2023-05-10T07:17:11.370Z,100979.52
2023-05-10T07:19:38.131Z,100974.35
2023-05-10T07:22:04.853Z,100973.39
2023-05-10T07:24:32.364Z,100972.91
2023-05-10T07:26:59.116Z,100970.88
2023-05-10T07:29:25.992Z,100972.58
2023-05-10T07:31:52.672Z,100965.33
2023-05-10T07:34:19.468Z,100963.80
2023-05-10T07:36:46.214Z,100957.61
2023-05-10T07:39:18.651Z,100959.34
2023-05-10T07:41:51.416Z,100953.59
2023-05-10T07:44:20.228Z,100953.73
2023-05-10T07:46:47.605Z,100946.92
2023-05-10T07:49:14.474Z,100939.33
2023-05-10T07:51:41.180Z,100939.25
2023-05-10T07:54:07.989Z,100936.86
2023-05-10T07:56:35.541Z,100937.30
2023-05-10T07:59:04.747Z,100929.64
2023-05-10T08:01:32.525Z,100928.50
2023-05-10T08:03:59.266Z,100933.02
2023-05-10T08:06:28.154Z,100928.60
2023-05-10T08:08:55.224Z,100925.88
2023-05-10T08:11:22.191Z,100931.27
2023-05-10T08:13:49.752Z,100925.86
2023-05-10T08:16:18.006Z,100924.52
2023-05-10T08:18:46.044Z,100921.65
2023-05-10T08:21:12.879Z,100920.40
2023-05-10T08:23:39.625Z,100916.63
2023-05-10T08:26:07.318Z,100916.98
2023-05-10T08:28:34.030Z,100915.35
2023-05-10T08:31:01.082Z,100911.45
2023-05-10T08:33:28.687Z,100910.00
2023-05-10T08:35:55.429Z,100913.05
2023-05-10T08:38:22.056Z,100912.27
2023-05-10T08:40:48.828Z,100917.08
2023-05-10T08:43:18.765Z,100911.56
2023-05-10T08:45:48.621Z,100912.09
2023-05-10T08:48:15.456Z,100910.88
2023-05-10T08:50:42.480Z,100906.45
2023-05-10T08:53:13.946Z,100912.64
2023-05-10T08:55:41.342Z,100906.31
2023-05-10T08:58:08.056Z,100906.70
2023-05-10T09:00:34.959Z,100905.38
2023-05-10T09:03:02.291Z,100905.04
2023-05-10T09:05:29.263Z,100899.81
2023-05-10T09:07:56.022Z,100898.13
2023-05-10T09:10:22.788Z,100896.38
2023-05-10T09:12:49.544Z,100894.67
2023-05-10T09:15:16.731Z,100892.63
2023-05-10T09:17:43.966Z,100884.95
2023-05-10T09:20:10.963Z,100886.82
2023-05-10T09:22:38.736Z,100888.20
2023-05-10T09:25:15.763Z,100881.98
2023-05-10T09:27:46.190Z,100880.02
2023-05-10T09:30:17.757Z,100873.85
2023-05-10T09:32:46.085Z,100879.91
2023-05-10T09:35:18.525Z,100869.17
2023-05-10T09:37:47.212Z,100874.93
2023-05-10T09:40:24.737Z,100869.39
2023-05-10T09:42:53.290Z,100869.98
2023-05-10T09:45:20.063Z,100868.80
2023-05-10T09:47:47.119Z,100865.25
2023-05-10T09:50:13.945Z,100867.57
2023-05-10T09:53:00.211Z,100865.60
2023-05-10T09:55:39.565Z,100861.09
2023-05-10T09:58:10.408Z,100860.42
2023-05-10T10:00:38.140Z,100859.48
2023-05-10T10:03:05.474Z,100860.23
2023-05-10T10:05:36.337Z,100853.95
2023-05-10T10:08:06.299Z,100851.52
2023-05-10T10:10:33.966Z,100850.83
2023-05-10T10:13:00.895Z,100851.15
2023-05-10T10:15:27.563Z,100848.56
2023-05-10T10:17:54.364Z,100854.64
2023-05-10T10:20:22.054Z,100847.55
2023-05-10T10:22:48.900Z,100849.83
2023-05-10T10:25:17.023Z,100846.70
2023-05-10T10:27:53.248Z,100847.13
2023-05-10T10:30:44.716Z,100850.67
2023-05-10T10:33:27.691Z,100846.17
2023-05-10T10:35:55.525Z,100848.34
2023-05-10T10:38:23.005Z,100846.49
2023-05-10T10:40:49.682Z,100840.98
2023-05-10T10:43:23.295Z,100836.91
2023-05-10T10:46:09.179Z,100838.50
2023-05-10T10:48:36.074Z,100836.46
2023-05-10T10:51:02.688Z,100831.84
2023-05-10T10:53:29.828Z,100828.46
2023-05-10T10:56:10.972Z,100822.30
2023-05-10T10:58:39.054Z,100820.39
2023-05-10T11:01:18.605Z,100821.27
2023-05-10T11:04:04.333Z,100818.00
2023-05-10T11:06:35.056Z,100814.46
2023-05-10T11:09:08.668Z,100816.10
2023-05-10T11:11:36.185Z,100816.71
2023-05-10T11:14:07.338Z,100813.10
2023-05-10T11:16:44.213Z,100809.95
2023-05-10T11:19:17.790Z,100810.02
2023-05-10T11:21:50.834Z,100809.12
2023-05-10T11:24:23.210Z,100803.81
2023-05-10T11:26:53.299Z,100808.92
2023-05-10T11:29:20.310Z,100803.88
2023-05-10T11:31:48.050Z,100801.92
2023-05-10T11:34:32.240Z,100803.69
2023-05-10T11:36:58.906Z,100802.02
2023-05-10T11:39:32.920Z,100798.41
2023-05-10T11:41:59.790Z,100796.51
2023-05-10T11:44:33.199Z,100800.45
2023-05-10T11:47:01.283Z,100802.30
2023-05-10T11:49:27.938Z,100804.27
2023-05-10T11:51:54.621Z,100800.89
2023-05-10T11:54:21.434Z,100804.53
2023-05-10T11:56:48.077Z,100803.16
2023-05-10T11:59:15.188Z,100801.60
2023-05-10T12:01:42.332Z,100797.38
2023-05-10T12:04:09.242Z,100799.31
2023-05-10T12:06:41.488Z,100798.99
2023-05-10T12:09:09.235Z,100796.16
2023-05-10T12:11:41.197Z,100798.34
2023-05-10T12:14:10.612Z,100795.68
2023-05-10T12:16:37.239Z,100796.12
2023-05-10T12:19:04.048Z,100795.04
2023-05-10T12:21:31.766Z,100788.50
2023-05-10T12:24:05.835Z,100790.89
2023-05-10T12:26:32.952Z,100785.78
2023-05-10T12:29:19.085Z,100785.25
2023-05-10T12:31:56.558Z,100780.58
2023-05-10T12:34:34.067Z,100784.01
2023-05-10T12:37:01.269Z,100782.73
2023-05-10T12:39:42.108Z,100776.25
2023-05-10T12:42:08.961Z,100774.79
2023-05-10T12:44:35.601Z,100777.67
2023-05-10T12:47:02.228Z,100772.84
2023-05-10T12:49:28.953Z,100773.20
2023-05-10T12:51:55.856Z,100771.09
2023-05-10T12:54:22.674Z,100769.89
2023-05-10T12:56:49.358Z,100765.55
2023-05-10T12:59:16.037Z,100767.83
2023-05-10T13:01:42.715Z,100764.32
2023-05-10T13:04:09.505Z,100763.84
2023-05-10T13:06:36.162Z,100757.85
2023-05-10T13:09:03.431Z,100753.18
2023-05-10T13:11:30.109Z,100750.90
2023-05-10T13:13:56.922Z,100752.28
2023-05-10T13:16:23.754Z,100751.98
2023-05-10T13:18:50.605Z,100754.34
2023-05-10T13:21:17.682Z,100751.78
2023-05-10T13:23:44.601Z,100747.68
2023-05-10T13:26:11.389Z,100749.19
2023-05-10T13:28:39.782Z,100749.35
2023-05-10T13:31:06.449Z,100744.87
2023-05-10T13:33:33.128Z,100741.38
2023-05-10T13:35:59.789Z,100742.29
2023-05-10T13:38:26.795Z,100738.58
2023-05-10T13:40:53.922Z,100736.55
2023-05-10T13:43:20.877Z,100735.94
2023-05-10T13:45:47.657Z,100738.36
2023-05-10T13:48:14.349Z,100733.59
2023-05-10T13:50:41.217Z,100729.03
2023-05-10T13:53:07.998Z,100718.30
2023-05-10T13:56:31.870Z,100722.58
2023-05-10T13:59:01.629Z,100724.52
2023-05-10T14:01:28.767Z,100724.36
2023-05-10T14:03:55.874Z,100727.21
2023-05-10T14:06:22.910Z,100725.70
2023-05-10T14:08:49.964Z,100726.14
2023-05-10T14:11:16.886Z,100727.74
2023-05-10T14:13:43.774Z,100730.09
2023-05-10T14:16:10.650Z,100723.70
2023-05-10T14:18:37.610Z,100724.02
2023-05-10T14:21:04.699Z,100722.70
2023-05-10T14:23:31.468Z,100721.00
2023-05-10T14:25:58.417Z,100720.80
2023-05-10T14:28:26.034Z,100723.07
2023-05-10T14:30:52.896Z,100721.48
2023-05-10T14:33:20.242Z,100725.67
2023-05-10T14:35:47.741Z,100724.67
2023-05-10T14:38:15.020Z,100719.05
2023-05-10T14:40:41.737Z,100720.86
2023-05-10T14:43:08.398Z,100720.83
2023-05-10T14:45:35.200Z,100715.83
2023-05-10T14:48:05.558Z,100715.46
2023-05-10T14:50:36.959Z,100716.52
2023-05-10T14:53:38.438Z,100711.30
2023-05-10T14:56:05.547Z,100709.65
2023-05-10T14:58:34.104Z,100705.62
2023-05-10T15:01:02.182Z,100704.25
2023-05-10T15:03:29.956Z,100701.77
2023-05-10T15:05:58.737Z,100699.31
2023-05-10T15:08:25.904Z,100696.67
2023-05-10T15:10:52.945Z,100694.02
2023-05-10T15:13:19.894Z,100692.69
2023-05-10T15:15:46.872Z,100692.54
2023-05-10T15:18:13.745Z,100692.52
2023-05-10T15:20:40.472Z,100692.30
2023-05-10T15:23:07.154Z,100690.61
2023-05-10T15:25:35.888Z,100690.26
2023-05-10T15:28:03.839Z,100691.26
2023-05-10T15:33:09.068Z,100686.97
2023-05-10T15:35:37.403Z,100686.73
2023-05-10T15:38:04.203Z,100682.94
2023-05-10T15:40:30.730Z,100683.55
2023-05-10T15:42:57.563Z,100682.48
2023-05-10T15:45:24.117Z,100679.48
2023-05-10T15:47:50.999Z,100677.17
2023-05-10T15:50:17.632Z,100672.98
2023-05-10T15:52:44.547Z,100674.27
2023-05-10T15:55:14.037Z,100672.27
2023-05-10T15:57:41.720Z,100669.92
2023-05-10T16:00:09.070Z,100672.87
2023-05-10T16:02:42.577Z,100672.33
2023-05-10T16:05:09.415Z,100670.98
2023-05-10T16:07:37.411Z,100669.66
2023-05-10T16:10:05.892Z,100669.44
2023-05-10T16:12:32.439Z,100669.40
2023-05-10T16:14:58.983Z,100670.34
2023-05-10T16:17:25.859Z,100664.55
2023-05-10T16:19:52.762Z,100663.63
2023-05-10T16:22:21.650Z,100669.94
2023-05-10T16:24:48.172Z,100670.06
2023-05-10T16:27:14.824Z,100671.92
2023-05-10T16:29:41.971Z,100669.86
2023-05-10T16:32:08.521Z,100671.18
2023-05-10T16:34:35.158Z,100667.45
2023-05-10T16:37:01.777Z,100669.11
2023-05-10T16:39:28.329Z,100668.14
2023-05-10T16:41:54.898Z,100665.75
2023-05-10T16:44:23.578Z,100661.28
2023-05-10T16:46:52.494Z,100662.96
2023-05-10T16:49:19.122Z,100664.16
2023-05-10T16:51:45.781Z,100663.05
2023-05-10T16:54:12.254Z,100662.33
2023-05-10T16:56:38.920Z,100660.86
2023-05-10T16:59:05.469Z,100660.27
2023-05-10T17:01:33.184Z,100660.23
2023-05-10T17:03:59.719Z,100662.00
2023-05-10T17:06:26.940Z,100661.27
2023-05-10T17:08:53.384Z,100662.60
2023-05-10T17:11:21.195Z,100661.97
2023-05-10T17:13:47.846Z,100663.46
2023-05-10T17:16:14.603Z,100663.72
2023-05-10T17:18:42.000Z,100665.78
2023-05-10T17:21:08.840Z,100667.91
2023-05-10T17:23:35.804Z,100667.35
2023-05-10T17:26:05.944Z,100664.76
2023-05-10T17:28:32.598Z,100668.98
2023-05-10T17:30:59.418Z,100669.11
2023-05-10T17:33:25.900Z,100667.84
2023-05-10T17:35:52.445Z,100671.52
2023-05-10T17:38:19.363Z,100669.10
2023-05-10T17:40:45.893Z,100672.13
2023-05-10T17:43:12.415Z,100670.34
2023-05-10T17:45:38.934Z,100676.80
2023-05-10T17:48:05.557Z,100674.63
2023-05-10T17:50:32.416Z,100681.50
2023-05-10T17:52:59.260Z,100683.15
2023-05-10T17:55:26.494Z,100683.30
2023-05-10T17:57:53.193Z,100684.52
2023-05-10T18:00:19.863Z,100688.77
2023-05-10T18:02:46.349Z,100687.42
2023-05-10T18:05:13.127Z,100690.38
2023-05-10T18:07:40.428Z,100688.27
2023-05-10T18:10:07.370Z,100689.27
2023-05-10T18:12:33.898Z,100689.61
2023-05-10T18:15:00.388Z,100692.08
2023-05-10T18:17:27.129Z,100690.83
2023-05-10T18:19:53.673Z,100692.60
2023-05-10T18:22:20.542Z,100696.83
2023-05-10T18:24:47.102Z,100697.77
2023-05-10T18:27:13.557Z,100697.26
2023-05-10T18:29:40.049Z,100698.76
2023-05-10T18:32:06.787Z,100698.28
2023-05-10T18:34:33.343Z,100699.17
2023-05-10T18:36:59.965Z,100699.21
2023-05-10T18:39:26.498Z,100691.30
2023-05-10T18:41:53.044Z,100695.41
2023-05-10T18:44:21.335Z,100700.28
2023-05-10T18:46:47.949Z,100697.68
2023-05-10T18:49:14.513Z,100695.24
2023-05-10T18:51:41.018Z,100694.02
2023-05-10T18:54:07.794Z,100695.05
2023-05-10T18:56:34.325Z,100695.44
2023-05-10T18:59:00.880Z,100693.13
2023-05-10T19:01:27.483Z,100689.21
2023-05-10T19:03:54.137Z,100696.71
2023-05-10T19:06:20.601Z,100692.19
2023-05-10T19:08:47.364Z,100693.94
2023-05-10T19:11:14.055Z,100693.11
2023-05-10T19:13:40.591Z,100693.04
2023-05-10T19:16:14.518Z,100695.20
2023-05-10T19:18:41.382Z,100694.34
2023-05-10T19:21:10.133Z,100695.77
2023-05-10T19:23:39.645Z,100699.72
2023-05-10T19:26:06.120Z,100695.63
2023-05-10T19:28:34.861Z,100698.81
2023-05-10T19:31:01.471Z,100701.09
2023-05-10T19:33:28.423Z,100700.15
2023-05-10T19:35:54.970Z,100700.66
2023-05-10T19:38:21.992Z,100701.41
2023-05-10T19:40:57.907Z,100705.01
2023-05-10T19:43:25.457Z,100705.74
2023-05-10T19:45:52.140Z,100701.61
2023-05-10T19:48:18.817Z,100703.14
2023-05-10T19:50:45.651Z,100701.11
2023-05-10T19:53:12.170Z,100701.39
2023-05-10T19:55:39.555Z,100701.19
2023-05-10T19:58:06.235Z,100700.23
2023-05-10T20:00:32.756Z,100703.42
2023-05-10T20:02:59.811Z,100702.98
2023-05-10T20:05:26.409Z,100705.52
2023-05-10T20:07:52.954Z,100703.48
2023-05-10T20:10:21.110Z,100701.45
2023-05-10T20:12:50.516Z,100701.75
2023-05-10T20:15:21.449Z,100704.91
2023-05-10T20:17:50.419Z,100708.06
2023-05-10T20:20:17.090Z,100702.69
2023-05-10T20:22:43.868Z,100700.70
2023-05-10T20:25:10.863Z,100700.69
2023-05-10T20:27:37.690Z,100700.64
2023-05-10T20:30:05.074Z,100702.45
2023-05-10T20:32:33.199Z,100701.20
2023-05-10T20:34:59.863Z,100702.42
2023-05-10T20:37:27.437Z,100702.42
2023-05-10T20:39:54.132Z,100702.97
2023-05-10T20:42:20.902Z,100698.59
2023-05-10T20:44:47.336Z,100703.93
2023-05-10T20:47:14.053Z,100702.50
2023-05-10T20:49:40.496Z,100700.33
2023-05-10T20:52:07.089Z,100701.55
2023-05-10T20:54:33.520Z,100699.62
2023-05-10T20:57:01.363Z,100702.86
2023-05-10T20:59:28.202Z,100700.91
2023-05-10T21:01:56.277Z,100706.08
2023-05-10T21:04:22.754Z,100701.66
2023-05-10T21:06:49.267Z,100702.27
2023-05-10T21:09:16.814Z,100704.48
2023-05-10T21:11:43.443Z,100702.41
2023-05-10T21:14:10.114Z,100704.59
2023-05-10T21:16:37.186Z,100705.52
2023-05-10T21:19:03.732Z,100706.67
2023-05-10T21:21:30.431Z,100706.28
2023-05-10T21:23:56.876Z,100707.98
2023-05-10T21:26:23.353Z,100723.13
2023-05-10T21:28:49.907Z,100736.48
2023-05-10T21:31:16.376Z,100728.84
2023-05-10T21:33:42.940Z,100725.81
2023-05-10T21:36:09.538Z,100727.64
2023-05-10T21:38:36.414Z,100723.25
2023-05-10T21:41:07.117Z,100726.67
2023-05-10T21:43:33.731Z,100720.81
2023-05-10T21:46:00.723Z,100722.05
2023-05-10T21:48:27.196Z,100725.61
2023-05-10T21:50:53.786Z,100721.58
2023-05-10T21:53:21.616Z,100716.45
2023-05-10T21:55:48.062Z,100717.86
2023-05-10T21:58:15.196Z,100716.79
2023-05-10T22:00:41.690Z,100713.58
2023-05-10T22:03:08.262Z,100714.83
2023-05-10T22:05:35.119Z,100712.87
2023-05-10T22:08:01.600Z,100713.41
2023-05-10T22:10:28.862Z,100710.77
2023-05-10T22:12:56.586Z,100717.55
2023-05-10T22:15:23.042Z,100716.70
2023-05-10T22:17:49.592Z,100719.79
2023-05-10T22:20:16.370Z,100716.30
2023-05-10T22:22:43.923Z,100719.01
2023-05-10T22:25:10.481Z,100719.23
2023-05-10T22:27:37.254Z,100719.83
2023-05-10T22:30:04.599Z,100718.48
2023-05-10T22:32:31.255Z,100714.83
2023-05-10T22:34:58.071Z,100718.42
2023-05-10T22:37:24.607Z,100722.00
2023-05-10T22:39:51.820Z,100725.92
2023-05-10T22:42:18.344Z,100723.66
2023-05-10T22:44:44.855Z,100723.30
2023-05-10T22:47:12.037Z,100721.34
2023-05-10T22:49:38.483Z,100719.05
2023-05-10T22:52:04.982Z,100717.30
2023-05-10T22:54:31.811Z,100714.65
2023-05-10T22:56:59.301Z,100717.46
2023-05-10T22:59:27.632Z,100718.52
2023-05-10T23:01:54.169Z,100719.08
2023-05-10T23:04:20.756Z,100720.51
2023-05-10T23:06:47.409Z,100721.75
2023-05-10T23:09:13.857Z,100723.02
2023-05-10T23:11:40.511Z,100720.19
2023-05-10T23:14:07.230Z,100718.05
2023-05-10T23:16:33.794Z,100718.95
2023-05-10T23:19:00.635Z,100719.52
2023-05-10T23:21:28.761Z,100721.11
2023-05-10T23:23:56.508Z,100720.79
2023-05-10T23:26:23.150Z,100722.92
2023-05-10T23:28:49.920Z,100723.81
2023-05-10T23:31:16.560Z,100725.40
2023-05-10T23:33:43.145Z,100730.73
2023-05-10T23:36:09.605Z,100728.45
2023-05-10T23:38:37.370Z,100730.93
2023-05-10T23:41:04.020Z,100731.11
2023-05-10T23:43:31.013Z,100731.65
2023-05-10T23:45:57.709Z,100732.35
2023-05-10T23:48:24.281Z,100736.26
2023-05-10T23:50:51.057Z,100739.46
2023-05-10T23:53:17.721Z,100737.17
2023-05-10T23:55:44.533Z,100743.57
2023-05-10T23:58:10.974Z,100741.64
